createdAt,value
2022-11-16T00:00:40.069Z,98518.63
2022-11-16T00:03:42.811Z,98521.84
2022-11-16T00:06:46.408Z,98513.13
2022-11-16T00:09:48.656Z,98507.47
2022-11-16T00:12:50.831Z,98508.88
2022-11-16T00:15:57.172Z,98501.97
2022-11-16T00:19:03.365Z,98501.78
2022-11-16T00:22:05.564Z,98507.06
2022-11-16T00:25:08.171Z,98503.59
2022-11-16T00:28:11.090Z,98499.13
2022-11-16T00:31:13.861Z,98495.69
2022-11-16T00:34:16.629Z,98495.69
2022-11-16T00:37:18.944Z,98474.56
2022-11-16T00:40:21.668Z,98474.56
2022-11-16T00:43:24.845Z,98456.91
2022-11-16T00:46:27.346Z,98461.56
2022-11-16T00:49:29.645Z,98456.50
2022-11-16T00:52:32.039Z,98453.06
2022-11-16T00:55:34.991Z,98449.38
2022-11-16T00:58:38.534Z,98446.16
2022-11-16T01:01:43.759Z,98438.81
2022-11-16T01:04:46.268Z,98445.13
2022-11-16T01:07:49.261Z,98440.28
2022-11-16T01:10:51.464Z,98449.38
2022-11-16T01:13:54.118Z,98441.44
2022-11-16T01:16:56.303Z,98412.69
2022-11-16T01:19:58.500Z,98418.72
2022-11-16T01:23:00.710Z,98413.28
2022-11-16T01:26:02.985Z,98415.28
2022-11-16T01:29:09.020Z,98411.44
2022-11-16T01:32:15.881Z,98409.38
2022-11-16T01:35:19.302Z,98406.75
2022-11-16T01:38:27.129Z,98402.50
2022-11-16T01:41:33.175Z,98391.22
2022-11-16T01:44:39.177Z,98385.84
2022-11-16T01:47:46.709Z,98379.41
2022-11-16T01:50:54.587Z,98373.31
2022-11-16T01:53:58.442Z,98375.75
2022-11-16T01:57:04.606Z,98368.03
2022-11-16T02:00:14.517Z,98366.56
2022-11-16T02:03:22.700Z,98364.16
2022-11-16T02:06:27.648Z,98362.31
2022-11-16T02:10:17.019Z,98360.47
2022-11-16T02:13:34.831Z,98360.47
2022-11-16T02:16:51.771Z,98343.88
2022-11-16T02:20:33.289Z,98348.31
2022-11-16T02:24:00.543Z,98344.88
2022-11-16T02:27:56.578Z,98337.75
2022-11-16T02:31:02.995Z,98330.03
2022-11-16T02:34:10.280Z,98330.63
2022-11-16T02:37:17.523Z,98324.97
2022-11-16T02:40:23.876Z,98320.75
2022-11-16T02:43:34.160Z,98330.03
2022-11-16T02:46:39.330Z,98329.03
2022-11-16T02:49:49.196Z,98313.84
2022-11-16T02:52:51.448Z,98304.53
2022-11-16T02:55:53.712Z,98307.28
2022-11-16T02:58:59.368Z,98310.75
2022-11-16T03:02:35.579Z,98304.66
2022-11-16T03:05:40.683Z,98297.63
2022-11-16T03:09:05.914Z,98291.91
2022-11-16T03:12:11.843Z,98292.50
2022-11-16T03:15:14.218Z,98301.00
2022-11-16T03:18:18.868Z,98290.31
2022-11-16T03:21:36.553Z,98295.94
2022-11-16T03:24:39.205Z,98294.91
2022-11-16T03:27:48.312Z,98279.06
2022-11-16T03:30:57.671Z,98280.91
2022-11-16T03:34:08.974Z,98275.84
2022-11-16T03:37:12.679Z,98274.22
2022-11-16T03:40:18.314Z,98278.50
2022-11-16T03:43:21.243Z,98264.47
2022-11-16T03:46:24.653Z,98262.06
2022-11-16T03:49:30.725Z,98250.34
2022-11-16T03:52:33.764Z,98256.00
2022-11-16T03:55:36.285Z,98243.66
2022-11-16T03:58:38.815Z,98249.66
2022-11-16T04:01:44.678Z,98257.38
2022-11-16T04:05:07.180Z,98260.00
2022-11-16T04:08:33.871Z,98247.84
2022-11-16T04:11:55.776Z,98225.78
2022-11-16T04:15:16.797Z,98233.00
2022-11-16T04:18:37.449Z,98234.63
2022-11-16T04:22:05.007Z,98226.72
2022-11-16T04:25:30.779Z,98226.94
2022-11-16T04:28:35.313Z,98226.34
2022-11-16T04:31:58.707Z,98222.44
2022-11-16T04:35:19.803Z,98209.13
2022-11-16T04:38:22.267Z,98217.16
2022-11-16T04:41:43.229Z,98219.81
2022-11-16T04:45:04.505Z,98217.16
2022-11-16T04:48:14.300Z,98210.31
2022-11-16T04:51:16.603Z,98207.06
2022-11-16T04:54:19.188Z,98203.03
2022-11-16T04:57:21.379Z,98199.03
2022-11-16T05:00:25.599Z,98207.66
2022-11-16T05:03:28.005Z,98207.88
2022-11-16T05:06:31.116Z,98210.31
2022-11-16T05:09:33.295Z,98205.47
2022-11-16T05:12:35.872Z,98200.19
2022-11-16T05:15:40.683Z,98197.56
2022-11-16T05:18:43.019Z,98202.38
2022-11-16T05:21:47.228Z,98205.22
2022-11-16T05:24:49.564Z,98195.38
2022-11-16T05:27:51.814Z,98206.03
2022-11-16T05:30:54.086Z,98187.56
2022-11-16T05:38:42.612Z,98180.66
2022-11-16T05:41:51.678Z,98165.88
2022-11-16T05:44:54.087Z,98171.38
2022-11-16T05:47:56.318Z,98168.72
2022-11-16T05:51:02.004Z,98161.25
2022-11-16T05:54:41.081Z,98170.09
2022-11-16T05:57:43.303Z,98170.91
2022-11-16T06:00:53.315Z,98161.16
2022-11-16T06:03:55.955Z,98150.03
2022-11-16T06:06:58.922Z,98146.00
2022-11-16T06:10:15.007Z,98159.53
2022-11-16T06:13:19.737Z,98147.25
2022-11-16T06:16:22.630Z,98145.41
2022-11-16T06:19:29.579Z,98154.50
2022-11-16T06:22:34.506Z,98147.84
2022-11-16T06:25:39.769Z,98142.22
2022-11-16T06:28:42.577Z,98166.09
2022-11-16T06:31:44.800Z,98159.19
2022-11-16T06:34:47.718Z,98156.91
2022-11-16T06:37:50.341Z,98154.06
2022-11-16T06:40:54.791Z,98154.06
2022-11-16T06:43:59.221Z,98156.69
2022-11-16T06:47:06.608Z,98148.78
2022-11-16T06:50:11.005Z,98138.88
2022-11-16T06:53:14.217Z,98139.38
2022-11-16T06:56:17.352Z,98128.69
2022-11-16T06:59:25.173Z,98126.03
2022-11-16T07:02:30.669Z,98125.81
2022-11-16T07:05:35.008Z,98131.81
2022-11-16T07:08:37.602Z,98125.72
2022-11-16T07:11:39.813Z,98128.28
2022-11-16T07:14:46.414Z,98114.94
2022-11-16T07:17:49.865Z,98130.00
2022-11-16T07:20:53.738Z,98134.13
2022-11-16T07:24:06.388Z,98129.84
2022-11-16T07:27:09.329Z,98120.81
2022-11-16T07:30:16.758Z,98122.19
2022-11-16T07:33:26.870Z,98121.16
2022-11-16T07:36:49.386Z,98117.09
2022-11-16T07:39:52.786Z,98110.25
2022-11-16T07:42:58.637Z,98106.09
2022-11-16T07:51:32.407Z,98113.69
2022-11-16T07:54:57.521Z,98103.81
2022-11-16T07:58:02.131Z,98100.94
2022-11-16T08:01:08.415Z,98094.66
2022-11-16T08:04:10.946Z,98089.81
2022-11-16T08:07:14.665Z,98087.63
2022-11-16T08:10:23.997Z,98077.75
2022-11-16T08:13:26.954Z,98093.03
2022-11-16T08:16:29.476Z,98086.63
2022-11-16T08:19:42.355Z,98088.56
2022-11-16T08:28:17.783Z,98030.44
2022-11-16T08:31:57.442Z,98081.34
2022-11-16T08:34:58.662Z,98088.00
2022-11-16T08:38:01.616Z,98080.53
2022-11-16T08:41:04.308Z,98078.69
2022-11-16T08:44:07.052Z,98081.91
2022-11-16T08:47:15.232Z,98081.56
2022-11-16T08:55:54.908Z,98066.47
2022-11-16T08:58:59.435Z,98083.97
2022-11-16T09:02:03.446Z,98073.41
2022-11-16T09:05:06.384Z,98068.78
2022-11-16T09:08:08.688Z,98064.66
2022-11-16T09:11:14.015Z,98063.41
2022-11-16T09:14:16.241Z,98065.59
2022-11-16T09:17:22.942Z,98067.44
2022-11-16T09:20:26.461Z,98063.41
2022-11-16T09:23:31.820Z,98065.00
2022-11-16T09:27:07.167Z,98073.84
2022-11-16T09:30:10.142Z,98066.53
2022-11-16T09:33:13.434Z,98071.56
2022-11-16T09:36:16.067Z,98065.03
2022-11-16T09:39:30.660Z,98057.44
2022-11-16T09:42:49.663Z,98053.75
2022-11-16T09:45:57.801Z,98060.19
2022-11-16T09:49:07.945Z,98042.50
2022-11-16T09:52:36.515Z,98044.78
2022-11-16T09:55:48.789Z,98022.50
2022-11-16T09:59:13.566Z,98029.50
2022-11-16T10:02:59.950Z,98016.19
2022-11-16T10:06:47.504Z,98022.38
2022-11-16T10:09:50.208Z,98017.09
2022-11-16T10:13:10.215Z,98019.31
2022-11-16T10:16:34.931Z,98016.19
2022-11-16T10:20:01.151Z,97995.31
2022-11-16T10:23:39.388Z,97996.88
2022-11-16T10:35:56.070Z,97995.41
2022-11-16T10:39:00.489Z,97981.03
2022-11-16T10:42:12.462Z,97975.53
2022-11-16T10:45:38.401Z,97976.69
2022-11-16T10:49:16.426Z,97981.25
2022-11-16T10:52:18.728Z,97975.75
2022-11-16T10:55:22.557Z,97971.47
2022-11-16T10:58:24.772Z,97956.91
2022-11-16T11:01:33.678Z,97961.63
2022-11-16T11:09:42.250Z,97941.19
2022-11-16T11:18:26.098Z,97931.75
2022-11-16T11:30:21.141Z,97880.97
2022-11-16T11:34:48.573Z,97903.09
2022-11-16T11:37:54.533Z,97909.41
2022-11-16T11:42:04.248Z,97910.81
2022-11-16T11:46:59.748Z,97894.69
2022-11-16T12:01:58.204Z,97893.88
2022-11-16T12:05:20.283Z,97893.88
2022-11-16T12:09:07.747Z,97893.88
2022-11-16T12:12:35.620Z,97885.19
2022-11-16T12:15:46.815Z,97876.78
2022-11-16T12:18:57.937Z,97887.69
2022-11-16T12:22:41.067Z,97883.97
2022-11-16T12:26:23.340Z,97892.47
2022-11-16T12:30:34.908Z,97875.81
2022-11-16T12:34:12.120Z,97870.91
2022-11-16T12:42:22.861Z,97871.00
2022-11-16T12:45:47.717Z,97864.91
2022-11-16T12:48:49.987Z,97849.59
2022-11-16T12:52:33.802Z,97855.16
2022-11-16T12:56:00.346Z,97857.22
2022-11-16T12:59:21.112Z,97857.47
2022-11-16T13:02:49.610Z,97856.88
2022-11-16T13:05:57.784Z,97856.88
2022-11-16T13:09:06.183Z,97861.94
2022-11-16T13:12:17.058Z,97868.59
2022-11-16T13:16:03.129Z,97863.06
2022-11-16T13:19:10.391Z,97854.72
2022-11-16T13:22:22.015Z,97845.25
2022-11-16T13:25:40.565Z,97853.97
2022-11-16T13:28:59.912Z,97851.81
2022-11-16T13:32:22.791Z,97853.41
2022-11-16T13:35:25.811Z,97855.25
2022-11-16T13:38:52.205Z,97857.31
2022-11-16T13:42:13.217Z,97851.25
2022-11-16T13:45:17.062Z,97852.03
2022-11-16T13:48:24.977Z,97846.16
2022-11-16T13:51:27.286Z,97852.03
2022-11-16T13:54:46.015Z,97843.50
2022-11-16T13:57:55.574Z,97844.09
2022-11-16T14:01:11.027Z,97832.94
2022-11-16T14:04:41.886Z,97842.25
2022-11-16T14:07:49.808Z,97832.28
2022-11-16T14:10:52.157Z,97836.28
2022-11-16T14:13:54.797Z,97839.47
2022-11-16T14:16:57.025Z,97830.66
2022-11-16T14:19:59.355Z,97824.47
2022-11-16T14:23:22.479Z,97831.25
2022-11-16T14:27:10.688Z,97830.94
2022-11-16T14:30:30.117Z,97824.50
2022-11-16T14:33:36.025Z,97822.13
2022-11-16T14:36:44.408Z,97817.75
2022-11-16T14:39:46.729Z,97816.72
2022-11-16T14:43:15.912Z,97816.50
2022-11-16T14:46:27.991Z,97825.22
2022-11-16T14:49:34.323Z,97826.47
2022-11-16T14:52:47.552Z,97813.28
2022-11-16T14:55:49.867Z,97812.03
2022-11-16T14:58:56.853Z,97806.16
2022-11-16T15:02:05.025Z,97804.53
2022-11-16T15:05:07.760Z,97805.13
2022-11-16T15:08:22.162Z,97790.16
2022-11-16T15:11:50.140Z,97784.88
2022-11-16T15:14:54.754Z,97789.53
2022-11-16T15:17:59.906Z,97798.53
2022-11-16T15:21:02.163Z,97795.06
2022-11-16T15:27:41.535Z,97784.66
2022-11-16T15:30:48.424Z,97784.31
2022-11-16T15:33:50.791Z,97781.09
2022-11-16T15:36:53.051Z,97780.53
2022-11-16T15:39:57.421Z,97785.75
2022-11-16T15:43:01.612Z,97781.50
2022-11-16T15:46:05.930Z,97779.66
2022-11-16T15:49:30.518Z,97791.25
2022-11-16T15:52:47.310Z,97787.25
2022-11-16T15:55:50.130Z,97781.63
2022-11-16T15:58:58.641Z,97785.63
2022-11-16T16:02:00.935Z,97784.03
2022-11-16T16:05:03.305Z,97776.03
2022-11-16T16:08:07.221Z,97779.22
2022-11-16T16:11:27.462Z,97778.88
2022-11-16T16:14:31.255Z,97778.66
2022-11-16T16:17:33.510Z,97772.03
2022-11-16T16:20:36.020Z,97773.84
2022-11-16T16:23:50.627Z,97780.16
2022-11-16T16:26:52.811Z,97784.63
2022-11-16T16:29:57.338Z,97787.28
2022-11-16T16:32:59.542Z,97782.72
2022-11-16T16:36:02.235Z,97784.31
2022-11-16T16:39:04.494Z,97780.63
2022-11-16T16:42:10.823Z,97779.84
2022-11-16T16:45:18.528Z,97770.78
2022-11-16T16:48:20.810Z,97771.09
2022-11-16T16:51:22.994Z,97772.16
2022-11-16T16:54:25.573Z,97778.47
2022-11-16T16:57:27.813Z,97767.78
2022-11-16T17:00:30.673Z,97761.75
2022-11-16T17:03:33.218Z,97769.66
2022-11-16T17:06:36.014Z,97763.31
2022-11-16T17:09:38.257Z,97772.84
2022-11-16T17:12:40.588Z,97754.84
2022-11-16T17:15:42.815Z,97753.22
2022-11-16T17:18:45.436Z,97765.41
2022-11-16T17:21:47.789Z,97763.00
2022-11-16T17:24:50.320Z,97763.00
2022-11-16T17:27:52.497Z,97760.59
2022-11-16T17:30:54.657Z,97751.06
2022-11-16T17:33:59.820Z,97749.44
2022-11-16T17:37:02.040Z,97754.50
2022-11-16T17:40:04.727Z,97745.78
2022-11-16T17:43:06.909Z,97750.50
2022-11-16T17:46:17.425Z,97749.94
2022-11-16T17:49:19.640Z,97742.00
2022-11-16T17:52:21.857Z,97740.66
2022-11-16T17:55:24.101Z,97744.91
2022-11-16T17:58:28.036Z,97745.69
2022-11-16T18:01:30.431Z,97744.91
2022-11-16T18:04:32.685Z,97749.38
2022-11-16T18:07:36.187Z,97740.91
2022-11-16T18:10:38.771Z,97738.00
2022-11-16T18:13:43.538Z,97732.16
2022-11-16T18:16:47.907Z,97732.16
2022-11-16T18:19:50.184Z,97731.59
2022-11-16T18:22:52.424Z,97737.66
2022-11-16T18:25:55.711Z,97724.38
2022-11-16T18:28:57.944Z,97728.59
2022-11-16T18:32:00.636Z,97724.94
2022-11-16T18:35:04.729Z,97729.41
2022-11-16T18:38:08.186Z,97720.94
2022-11-16T18:41:13.470Z,97728.59
2022-11-16T18:44:15.706Z,97720.63
2022-11-16T18:47:17.904Z,97732.31
2022-11-16T18:50:26.481Z,97732.31
2022-11-16T18:53:30.669Z,97728.06
2022-11-16T18:56:34.843Z,97729.88
2022-11-16T18:59:37.107Z,97734.38
2022-11-16T19:02:39.326Z,97729.34
2022-11-16T19:05:42.083Z,97727.16
2022-11-16T19:08:47.837Z,97734.63
2022-11-16T19:11:54.345Z,97728.75
2022-11-16T19:14:56.564Z,97727.97
2022-11-16T19:18:19.846Z,97727.16
2022-11-16T19:21:24.426Z,97723.72
2022-11-16T19:24:26.663Z,97722.88
2022-11-16T19:27:29.801Z,97717.84
2022-11-16T19:30:32.084Z,97707.75
2022-11-16T19:33:34.814Z,97708.31
2022-11-16T19:36:37.545Z,97708.22
2022-11-16T19:39:39.995Z,97710.16
2022-11-16T19:42:42.935Z,97708.22
2022-11-16T19:45:45.221Z,97704.53
2022-11-16T19:48:49.352Z,97705.00
2022-11-16T19:51:52.164Z,97713.28
2022-11-16T19:54:54.486Z,97704.00
2022-11-16T19:57:56.657Z,97699.19
2022-11-16T20:01:06.953Z,97703.19
2022-11-16T20:04:09.412Z,97706.63
2022-11-16T20:07:13.485Z,97699.97
2022-11-16T20:10:16.420Z,97703.88
2022-11-16T20:13:18.636Z,97703.06
2022-11-16T20:16:23.447Z,97710.75
2022-11-16T20:19:25.693Z,97703.31
2022-11-16T20:22:27.895Z,97710.75
2022-11-16T20:25:30.151Z,97719.94
2022-11-16T20:28:40.731Z,97713.88
2022-11-16T20:31:45.318Z,97712.84
2022-11-16T20:34:47.539Z,97711.44
2022-11-16T20:37:49.744Z,97707.22
2022-11-16T20:40:52.008Z,97700.69
2022-11-16T20:43:56.653Z,97694.59
2022-11-16T20:46:58.924Z,97694.03
2022-11-16T20:50:03.154Z,97700.09
2022-11-16T20:53:05.343Z,97700.09
2022-11-16T20:56:07.817Z,97696.91
2022-11-16T20:59:10.017Z,97705.38
2022-11-16T21:02:12.501Z,97703.78
2022-11-16T21:05:14.842Z,97700.34
2022-11-16T21:08:17.183Z,97693.44
2022-11-16T21:11:30.492Z,97691.53
2022-11-16T21:14:32.798Z,97691.88
2022-11-16T21:17:36.223Z,97692.09
2022-11-16T21:20:38.524Z,97693.94
2022-11-16T21:23:51.409Z,97690.25
2022-11-16T21:26:53.638Z,97680.72
2022-11-16T21:29:55.900Z,97673.28
2022-11-16T21:32:58.054Z,97669.38
2022-11-16T21:36:05.501Z,97655.50
2022-11-16T21:39:08.114Z,97662.19
2022-11-16T21:42:10.523Z,97666.41
2022-11-16T21:45:12.747Z,97656.19
2022-11-16T21:48:15.275Z,97658.81
2022-11-16T21:51:18.942Z,97649.56
2022-11-16T21:54:21.122Z,97637.63
2022-11-16T21:57:23.413Z,97633.16
2022-11-16T22:00:26.989Z,97631.56
2022-11-16T22:03:30.997Z,97635.00
2022-11-16T22:06:51.628Z,97629.13
2022-11-16T22:09:53.865Z,97652.66
2022-11-16T22:12:56.068Z,97651.84
2022-11-16T22:15:58.532Z,97645.78
2022-11-16T22:19:00.752Z,97644.75
2022-11-16T22:22:03.350Z,97641.56
2022-11-16T22:25:06.206Z,97644.41
2022-11-16T22:28:20.631Z,97661.03
2022-11-16T22:31:23.303Z,97675.84
2022-11-16T22:34:25.549Z,97677.09
2022-11-16T22:37:27.703Z,97667.34
2022-11-16T22:40:30.140Z,97670.22
2022-11-16T22:43:33.142Z,97663.34
2022-11-16T22:46:35.620Z,97657.84
2022-11-16T22:49:37.799Z,97653.00
2022-11-16T22:52:39.959Z,97647.53
2022-11-16T22:55:42.131Z,97652.00
2022-11-16T22:58:44.345Z,97656.47
2022-11-16T23:01:46.549Z,97654.06
2022-11-16T23:04:48.764Z,97655.91
2022-11-16T23:07:50.947Z,97656.72
2022-11-16T23:11:29.227Z,97650.63
2022-11-16T23:14:50.105Z,97646.16
2022-11-16T23:17:52.303Z,97642.16
2022-11-16T23:21:13.088Z,97628.16
2022-11-16T23:24:34.429Z,97629.41
2022-11-16T23:27:39.661Z,97643.19
2022-11-16T23:30:43.081Z,97639.19
2022-11-16T23:33:45.333Z,97642.38
2022-11-16T23:36:47.520Z,97645.22
2022-11-16T23:39:49.811Z,97648.34
2022-11-16T23:43:14.453Z,97643.41
2022-11-16T23:46:16.642Z,97639.63
2022-11-16T23:49:18.797Z,97644.47
2022-11-16T23:52:21.019Z,97633.00
2022-11-16T23:55:23.505Z,97639.41
2022-11-16T23:58:25.699Z,97634.59
